createdAt,value
2018-10-19T00:00:37.500Z,98735.71
2018-10-19T00:03:06.965Z,98737.83
2018-10-19T00:05:36.447Z,98724.18
2018-10-19T00:08:06.527Z,98727.16
2018-10-19T00:10:35.955Z,98722.88
2018-10-19T00:13:05.664Z,98723.73
2018-10-19T00:15:35.063Z,98724.20
2018-10-19T00:18:04.507Z,98727.19
2018-10-19T00:20:33.915Z,98725.04
2018-10-19T00:23:03.473Z,98724.11
2018-10-19T00:25:32.879Z,98718.52
2018-10-19T00:28:02.283Z,98720.59
2018-10-19T00:30:31.863Z,98714.98
2018-10-19T00:33:01.302Z,98721.31
2018-10-19T00:35:30.759Z,98719.55
2018-10-19T00:38:00.233Z,98724.64
2018-10-19T00:40:29.702Z,98718.04
2018-10-19T00:42:59.091Z,98719.41
2018-10-19T00:45:33.860Z,98720.64
2018-10-19T00:48:14.968Z,98722.58
2018-10-19T00:50:44.492Z,98718.08
2018-10-19T00:53:14.257Z,98715.34
2018-10-19T00:55:43.612Z,98716.44
2018-10-19T00:58:13.012Z,98719.31
2018-10-19T01:00:43.120Z,98714.49
2018-10-19T01:03:12.559Z,98712.37
2018-10-19T01:05:42.219Z,98711.88
2018-10-19T01:08:11.739Z,98708.39
2018-10-19T01:10:41.164Z,98705.39
2018-10-19T01:13:10.568Z,98707.87
2018-10-19T01:15:39.959Z,98705.78
2018-10-19T01:18:09.433Z,98705.08
2018-10-19T01:20:38.824Z,98703.94
2018-10-19T01:23:08.289Z,98700.54
2018-10-19T01:25:40.744Z,98703.56
2018-10-19T01:28:10.936Z,98697.70
2018-10-19T01:30:40.771Z,98698.27
2018-10-19T01:33:10.293Z,98705.64
2018-10-19T01:35:39.629Z,98701.50
2018-10-19T01:38:09.047Z,98697.36
2018-10-19T01:40:38.624Z,98704.61
2018-10-19T01:43:08.020Z,98702.02
2018-10-19T01:45:37.589Z,98705.37
2018-10-19T01:48:07.067Z,98709.98
2018-10-19T01:50:36.466Z,98708.53
2018-10-19T01:53:06.263Z,98713.94
2018-10-19T01:55:35.685Z,98707.59
2018-10-19T01:58:05.697Z,98707.16
2018-10-19T02:00:35.195Z,98713.41
2018-10-19T02:03:04.733Z,98719.17
2018-10-19T02:05:34.086Z,98720.78
2018-10-19T02:08:03.520Z,98718.69
2018-10-19T02:10:32.936Z,98719.50
2018-10-19T02:13:02.325Z,98716.84
2018-10-19T02:15:31.806Z,98715.99
2018-10-19T02:18:01.248Z,98718.04
2018-10-19T02:20:30.640Z,98712.94
2018-10-19T02:23:00.053Z,98717.23
2018-10-19T02:25:29.462Z,98719.36
2018-10-19T02:27:58.995Z,98723.14
2018-10-19T02:30:28.441Z,98722.39
2018-10-19T02:32:57.884Z,98722.47
2018-10-19T02:35:27.284Z,98721.25
2018-10-19T02:37:56.692Z,98711.09
2018-10-19T02:40:26.100Z,98711.88
2018-10-19T02:42:55.501Z,98717.41
2018-10-19T02:45:24.908Z,98716.62
2018-10-19T02:47:54.344Z,98714.96
2018-10-19T02:50:23.732Z,98717.53
2018-10-19T02:52:59.736Z,98712.47
2018-10-19T02:55:29.168Z,98714.22
2018-10-19T02:57:58.560Z,98716.44
2018-10-19T03:00:27.984Z,98720.80
2018-10-19T03:02:57.388Z,98713.59
2018-10-19T03:05:26.796Z,98714.45
2018-10-19T03:07:56.228Z,98723.25
2018-10-19T03:10:25.637Z,98731.67
2018-10-19T03:12:55.032Z,98730.73
2018-10-19T03:15:24.448Z,98721.34
2018-10-19T03:17:53.851Z,98719.19
2018-10-19T03:20:23.255Z,98723.05
2018-10-19T03:22:52.678Z,98728.65
2018-10-19T03:25:22.127Z,98719.32
2018-10-19T03:27:51.568Z,98717.66
2018-10-19T03:30:21.004Z,98718.90
2018-10-19T03:32:50.388Z,98718.09
2018-10-19T03:35:19.791Z,98715.22
2018-10-19T03:37:49.242Z,98715.77
2018-10-19T03:40:18.652Z,98706.02
2018-10-19T03:42:48.093Z,98711.26
2018-10-19T03:45:17.583Z,98714.28
2018-10-19T03:47:46.953Z,98710.49
2018-10-19T03:50:16.391Z,98710.11
2018-10-19T03:52:45.799Z,98710.11
2018-10-19T03:55:15.202Z,98711.85
2018-10-19T03:57:44.596Z,98711.42
2018-10-19T04:00:14.032Z,98708.98
2018-10-19T04:02:43.440Z,98709.64
2018-10-19T04:05:12.858Z,98711.15
2018-10-19T04:07:42.274Z,98707.46
2018-10-19T04:10:11.684Z,98709.30
2018-10-19T04:12:41.119Z,98707.70
2018-10-19T04:15:10.748Z,98707.38
2018-10-19T04:17:40.137Z,98699.33
2018-10-19T04:20:09.584Z,98706.20
2018-10-19T04:22:38.986Z,98707.93
2018-10-19T04:25:08.557Z,98706.25
2018-10-19T04:27:38.076Z,98707.14
2018-10-19T04:30:08.244Z,98710.98
2018-10-19T04:32:37.652Z,98710.16
2018-10-19T04:35:07.691Z,98708.06
2018-10-19T04:37:37.068Z,98714.94
2018-10-19T04:40:19.875Z,98713.20
2018-10-19T04:42:49.323Z,98721.66
2018-10-19T04:45:19.396Z,98717.28
2018-10-19T04:47:48.907Z,98716.34
2018-10-19T04:50:18.279Z,98713.35
2018-10-19T04:52:47.727Z,98715.87
2018-10-19T04:55:19.708Z,98716.37
2018-10-19T04:57:49.135Z,98724.95
2018-10-19T05:00:19.896Z,98719.86
2018-10-19T05:02:50.294Z,98722.94
2018-10-19T05:05:19.861Z,98723.36
2018-10-19T05:07:49.311Z,98728.52
2018-10-19T05:10:18.725Z,98723.03
2018-10-19T05:12:48.214Z,98727.73
2018-10-19T05:15:17.628Z,98718.79
2018-10-19T05:17:47.067Z,98726.09
2018-10-19T05:20:16.529Z,98725.64
2018-10-19T05:22:45.891Z,98726.94
2018-10-19T05:25:15.320Z,98726.51
2018-10-19T05:27:44.830Z,98727.37
2018-10-19T05:30:14.319Z,98726.93
2018-10-19T05:32:44.066Z,98731.66
2018-10-19T05:35:13.451Z,98731.66
2018-10-19T05:37:42.874Z,98731.20
2018-10-19T05:40:12.337Z,98732.52
2018-10-19T05:42:41.771Z,98741.08
2018-10-19T05:45:12.780Z,98741.93
2018-10-19T05:47:42.320Z,98744.97
2018-10-19T05:50:12.546Z,98746.66
2018-10-19T05:52:42.907Z,98746.65
2018-10-19T05:55:12.400Z,98749.27
2018-10-19T05:57:41.979Z,98743.70
2018-10-19T06:00:12.201Z,98743.71
2018-10-19T06:02:41.753Z,98748.41
2018-10-19T06:05:17.804Z,98743.70
2018-10-19T06:07:47.238Z,98750.56
2018-10-19T06:10:16.668Z,98746.29
2018-10-19T06:12:46.080Z,98743.71
2018-10-19T06:15:15.579Z,98741.98
2018-10-19T06:17:44.986Z,98739.44
2018-10-19T06:20:14.487Z,98738.98
2018-10-19T06:22:43.820Z,98746.71
2018-10-19T06:25:13.255Z,98748.42
2018-10-19T06:27:42.688Z,98751.44
2018-10-19T06:30:12.096Z,98753.14
2018-10-19T06:32:41.492Z,98764.27
2018-10-19T06:35:11.041Z,98764.25
2018-10-19T06:37:40.376Z,98763.38
2018-10-19T06:40:09.824Z,98768.52
2018-10-19T06:42:39.219Z,98769.41
2018-10-19T06:45:08.700Z,98769.83
2018-10-19T06:47:38.114Z,98769.83
2018-10-19T06:50:10.086Z,98759.13
2018-10-19T06:52:39.807Z,98765.13
2018-10-19T06:55:11.260Z,98771.53
2018-10-19T06:57:40.639Z,98770.25
2018-10-19T07:00:10.079Z,98773.70
2018-10-19T07:02:39.500Z,98777.97
2018-10-19T07:05:08.944Z,98777.09
2018-10-19T07:07:38.655Z,98777.15
2018-10-19T07:10:09.648Z,98782.27
2018-10-19T07:12:39.319Z,98789.97
2018-10-19T07:15:09.789Z,98780.98
2018-10-19T07:17:39.271Z,98788.70
2018-10-19T07:20:10.111Z,98782.73
2018-10-19T07:22:39.728Z,98786.58
2018-10-19T07:25:09.423Z,98788.31
2018-10-19T07:27:38.901Z,98790.48
2018-10-19T07:30:08.608Z,98790.89
2018-10-19T07:32:38.065Z,98800.34
2018-10-19T07:35:08.062Z,98801.62
2018-10-19T07:37:37.451Z,98801.62
2018-10-19T07:42:42.355Z,98808.89
2018-10-19T07:45:11.779Z,98808.05
2018-10-19T07:47:41.305Z,98816.61
2018-10-19T07:50:11.023Z,98810.62
2018-10-19T07:52:40.970Z,98814.91
2018-10-19T07:55:11.583Z,98796.52
2018-10-19T07:57:41.000Z,98820.50
2018-10-19T08:00:11.128Z,98818.34
2018-10-19T08:02:40.529Z,98814.05
2018-10-19T08:05:10.680Z,98815.33
2018-10-19T08:07:40.110Z,98811.92
2018-10-19T08:10:10.668Z,98815.76
2018-10-19T08:12:40.241Z,98814.45
2018-10-19T08:15:10.311Z,98814.88
2018-10-19T08:17:39.788Z,98817.45
2018-10-19T08:20:10.124Z,98813.58
2018-10-19T08:22:39.691Z,98822.58
2018-10-19T08:25:09.137Z,98825.16
2018-10-19T08:27:38.559Z,98826.41
2018-10-19T08:30:07.999Z,98827.22
2018-10-19T08:32:37.456Z,98820.36
2018-10-19T08:35:07.665Z,98817.75
2018-10-19T08:37:37.162Z,98822.94
2018-10-19T08:40:07.618Z,98820.77
2018-10-19T08:42:37.088Z,98827.22
2018-10-19T08:45:07.918Z,98825.05
2018-10-19T08:47:37.388Z,98820.70
2018-10-19T08:50:07.963Z,98818.84
2018-10-19T08:52:37.411Z,98822.67
2018-10-19T08:55:07.197Z,98819.28
2018-10-19T08:57:36.633Z,98822.20
2018-10-19T09:00:08.280Z,98820.41
2018-10-19T09:02:37.712Z,98823.47
2018-10-19T09:05:07.205Z,98818.30
2018-10-19T09:07:36.602Z,98816.95
2018-10-19T09:10:06.754Z,98821.23
2018-10-19T09:12:36.362Z,98826.20
2018-10-19T09:15:06.923Z,98817.48
2018-10-19T09:17:36.318Z,98826.94
2018-10-19T09:20:06.732Z,98825.23
2018-10-19T09:22:36.221Z,98823.97
2018-10-19T09:25:06.151Z,98823.89
2018-10-19T09:27:35.565Z,98818.17
2018-10-19T09:30:06.183Z,98816.42
2018-10-19T09:32:35.591Z,98820.30
2018-10-19T09:35:05.041Z,98824.09
2018-10-19T09:37:34.531Z,98801.36
2018-10-19T09:40:03.974Z,98822.29
2018-10-19T09:42:33.422Z,98820.88
2018-10-19T09:45:02.910Z,98825.70
2018-10-19T09:47:32.368Z,98832.99
2018-10-19T09:50:01.767Z,98831.69
2018-10-19T09:52:31.186Z,98826.91
2018-10-19T09:55:00.623Z,98827.48
2018-10-19T09:57:30.060Z,98824.09
2018-10-19T09:59:59.525Z,98823.98
2018-10-19T10:02:28.966Z,98821.88
2018-10-19T10:04:58.444Z,98824.87
2018-10-19T10:07:27.866Z,98825.23
2018-10-19T10:09:57.300Z,98824.33
2018-10-19T10:12:26.745Z,98819.47
2018-10-19T10:14:56.236Z,98818.52
2018-10-19T10:17:25.607Z,98817.94
2018-10-19T10:19:55.049Z,98819.59
2018-10-19T10:22:24.484Z,98813.92
2018-10-19T10:24:54.210Z,98813.63
2018-10-19T10:27:23.561Z,98805.37
2018-10-19T10:29:52.972Z,98810.54
2018-10-19T10:32:22.484Z,98809.03
2018-10-19T10:34:51.883Z,98811.14
2018-10-19T10:37:21.308Z,98812.11
2018-10-19T10:39:50.745Z,98806.77
2018-10-19T10:42:20.170Z,98802.56
2018-10-19T10:44:49.599Z,98813.23
2018-10-19T10:47:19.036Z,98809.54
2018-10-19T10:49:48.483Z,98808.83
2018-10-19T10:52:17.899Z,98802.73
2018-10-19T10:54:47.308Z,98807.95
2018-10-19T10:57:16.735Z,98803.78
2018-10-19T10:59:46.165Z,98807.19
2018-10-19T11:02:15.604Z,98797.14
2018-10-19T11:04:45.044Z,98796.96
2018-10-19T11:07:14.549Z,98788.20
2018-10-19T11:09:43.902Z,98792.93
2018-10-19T11:12:13.339Z,98797.50
2018-10-19T11:14:42.773Z,98785.94
2018-10-19T11:17:12.230Z,98781.53
2018-10-19T11:19:41.614Z,98784.52
2018-10-19T11:22:11.123Z,98779.00
2018-10-19T11:24:40.483Z,98779.70
2018-10-19T11:27:09.892Z,98779.06
2018-10-19T11:29:39.416Z,98775.95
2018-10-19T11:32:08.831Z,98779.35
2018-10-19T11:34:38.260Z,98777.42
2018-10-19T11:37:07.794Z,98776.91
2018-10-19T11:39:47.295Z,98779.95
2018-10-19T11:42:16.720Z,98774.25
2018-10-19T11:44:46.152Z,98776.05
2018-10-19T11:47:15.561Z,98775.95
2018-10-19T11:49:44.979Z,98769.38
2018-10-19T11:52:14.495Z,98770.03
2018-10-19T11:54:43.844Z,98762.00
2018-10-19T11:57:14.496Z,98762.17
2018-10-19T11:59:43.868Z,98757.94
2018-10-19T12:02:13.272Z,98755.47
2018-10-19T12:04:42.728Z,98749.55
2018-10-19T12:07:12.227Z,98748.34
2018-10-19T12:09:41.617Z,98742.89
2018-10-19T12:12:11.061Z,98740.56
2018-10-19T12:14:40.472Z,98747.78
2018-10-19T12:17:09.986Z,98747.99
2018-10-19T12:19:39.346Z,98750.45
2018-10-19T12:22:08.755Z,98749.52
2018-10-19T12:24:38.208Z,98744.96
2018-10-19T12:27:07.718Z,98744.64
2018-10-19T12:29:37.167Z,98742.33
2018-10-19T12:32:07.458Z,98748.30
2018-10-19T12:34:37.095Z,98735.52
2018-10-19T12:37:07.582Z,98733.00
2018-10-19T12:39:36.988Z,98729.81
2018-10-19T12:42:06.821Z,98726.52
2018-10-19T12:44:36.444Z,98728.56
2018-10-19T12:47:24.665Z,98727.91
2018-10-19T12:49:54.076Z,98725.95
2018-10-19T12:52:23.563Z,98727.88
2018-10-19T12:54:53.004Z,98721.70
2018-10-19T12:57:22.448Z,98715.30
2018-10-19T12:59:51.839Z,98717.95
2018-10-19T13:02:21.293Z,98718.57
2018-10-19T13:04:50.730Z,98715.38
2018-10-19T13:07:20.296Z,98717.19
2018-10-19T13:09:49.884Z,98727.12
2018-10-19T13:12:19.299Z,98726.92
2018-10-19T13:14:48.738Z,98726.02
2018-10-19T13:17:18.172Z,98725.89
2018-10-19T13:19:47.594Z,98723.33
2018-10-19T13:22:17.010Z,98720.28
2018-10-19T13:24:46.444Z,98720.06
2018-10-19T13:27:15.941Z,98715.27
2018-10-19T13:29:45.312Z,98713.45
2018-10-19T13:32:14.730Z,98714.94
2018-10-19T13:34:44.124Z,98719.28
2018-10-19T13:37:13.535Z,98714.44
2018-10-19T13:39:42.960Z,98717.36
2018-10-19T13:42:12.415Z,98713.49
2018-10-19T13:44:41.930Z,98711.61
2018-10-19T13:47:11.424Z,98712.63
2018-10-19T13:49:40.779Z,98711.55
2018-10-19T13:52:10.223Z,98705.33
2018-10-19T13:54:39.671Z,98707.92
2018-10-19T13:57:09.155Z,98712.64
2018-10-19T13:59:38.522Z,98710.19
2018-10-19T14:02:07.921Z,98714.39
2018-10-19T14:04:37.371Z,98712.20
2018-10-19T14:07:06.783Z,98709.83
2018-10-19T14:09:36.188Z,98704.06
2018-10-19T14:12:05.987Z,98704.81
2018-10-19T14:14:35.389Z,98707.34
2018-10-19T14:17:04.992Z,98697.55
2018-10-19T14:19:34.424Z,98702.22
2018-10-19T14:22:03.832Z,98702.77
2018-10-19T14:24:33.250Z,98701.09
2018-10-19T14:27:02.750Z,98702.39
2018-10-19T14:29:32.096Z,98706.59
2018-10-19T14:32:01.510Z,98704.45
2018-10-19T14:34:30.956Z,98701.94
2018-10-19T14:37:00.419Z,98702.89
2018-10-19T14:39:30.068Z,98700.25
2018-10-19T14:41:59.528Z,98698.06
2018-10-19T14:44:28.929Z,98696.37
2018-10-19T14:46:58.344Z,98694.79
2018-10-19T14:49:27.795Z,98691.34
2018-10-19T14:51:57.207Z,98690.84
2018-10-19T14:54:26.717Z,98689.46
2018-10-19T14:56:56.122Z,98684.88
2018-10-19T14:59:25.547Z,98685.27
2018-10-19T15:01:55.003Z,98692.19
2018-10-19T15:04:24.419Z,98693.44
2018-10-19T15:06:53.871Z,98690.05
2018-10-19T15:09:23.434Z,98691.75
2018-10-19T15:11:52.758Z,98690.10
2018-10-19T15:14:22.229Z,98670.40
2018-10-19T15:16:51.671Z,98680.70
2018-10-19T15:19:21.088Z,98674.53
2018-10-19T15:21:50.579Z,98672.39
2018-10-19T15:24:20.016Z,98662.05
2018-10-19T15:26:49.474Z,98656.12
2018-10-19T15:29:18.986Z,98656.18
2018-10-19T15:31:48.546Z,98660.20
2018-10-19T15:34:18.066Z,98657.75
2018-10-19T15:36:47.472Z,98663.42
2018-10-19T15:39:17.277Z,98668.64
2018-10-19T15:41:46.671Z,98670.83
2018-10-19T15:44:17.388Z,98675.24
2018-10-19T15:46:46.805Z,98676.58
2018-10-19T15:49:17.330Z,98674.56
2018-10-19T15:51:46.772Z,98675.10
2018-10-19T15:54:17.263Z,98683.74
2018-10-19T15:56:46.697Z,98691.54
2018-10-19T15:59:17.344Z,98691.59
2018-10-19T16:01:46.864Z,98691.17
2018-10-19T16:04:17.311Z,98690.78
2018-10-19T16:06:46.735Z,98685.61
2018-10-19T16:09:17.544Z,98695.17
2018-10-19T16:11:47.044Z,98694.34
2018-10-19T16:14:17.323Z,98695.23
2018-10-19T16:16:46.756Z,98697.45
2018-10-19T16:19:17.307Z,98694.87
2018-10-19T16:21:46.716Z,98703.09
2018-10-19T16:24:17.379Z,98703.58
2018-10-19T16:26:46.814Z,98703.69
2018-10-19T16:29:17.292Z,98705.61
2018-10-19T16:31:46.736Z,98708.47
2018-10-19T16:34:17.377Z,98712.85
2018-10-19T16:36:46.831Z,98713.67
2018-10-19T16:39:17.339Z,98714.96
2018-10-19T16:41:46.776Z,98715.77
2018-10-19T16:44:17.291Z,98721.31
2018-10-19T16:46:46.749Z,98723.55
2018-10-19T16:49:17.284Z,98726.95
2018-10-19T16:51:46.703Z,98732.08
2018-10-19T16:54:17.456Z,98729.16
2018-10-19T16:56:46.811Z,98730.07
2018-10-19T16:59:17.444Z,98730.48
2018-10-19T17:01:46.853Z,98733.59
2018-10-19T17:04:17.318Z,98733.66
2018-10-19T17:06:46.728Z,98732.43
2018-10-19T17:09:17.584Z,98735.03
2018-10-19T17:11:46.947Z,98741.58
2018-10-19T17:14:17.382Z,98747.38
2018-10-19T17:16:46.867Z,98748.68
2018-10-19T17:19:17.380Z,98749.97
2018-10-19T17:21:46.759Z,98751.67
2018-10-19T17:24:17.433Z,98761.11
2018-10-19T17:26:46.856Z,98763.30
2018-10-19T17:29:17.426Z,98767.24
2018-10-19T17:31:46.817Z,98777.58
2018-10-19T17:34:17.345Z,98782.69
2018-10-19T17:36:46.816Z,98782.64
2018-10-19T17:39:17.402Z,98777.47
2018-10-19T17:41:46.811Z,98776.20
2018-10-19T17:44:17.585Z,98777.04
2018-10-19T17:46:47.124Z,98782.64
2018-10-19T17:49:17.572Z,98780.91
2018-10-19T17:51:47.692Z,98786.94
2018-10-19T17:54:18.132Z,98787.04
2018-10-19T17:56:47.596Z,98792.21
2018-10-19T17:59:18.003Z,98787.95
2018-10-19T18:01:47.508Z,98785.86
2018-10-19T18:04:17.413Z,98791.14
2018-10-19T18:06:47.393Z,98788.96
2018-10-19T18:09:17.931Z,98789.77
2018-10-19T18:11:48.350Z,98788.02
2018-10-19T18:14:18.013Z,98792.30
2018-10-19T18:16:50.290Z,98797.46
2018-10-19T18:19:21.609Z,98799.17
2018-10-19T18:21:53.111Z,98799.24
2018-10-19T18:24:24.386Z,98803.96
2018-10-19T18:26:57.424Z,98806.95
2018-10-19T18:29:30.444Z,98809.12
2018-10-19T18:32:03.105Z,98814.30
2018-10-19T18:34:36.223Z,98815.14
2018-10-19T18:37:09.464Z,98816.02
2018-10-19T18:39:42.551Z,98817.28
2018-10-19T18:42:15.760Z,98825.02
2018-10-19T18:44:48.445Z,98821.17
2018-10-19T18:47:21.822Z,98823.77
2018-10-19T18:49:54.594Z,98823.34
2018-10-19T18:52:27.700Z,98828.09
2018-10-19T18:55:00.794Z,98833.24
2018-10-19T18:57:33.852Z,98833.34
2018-10-19T19:00:09.204Z,98834.64
2018-10-19T19:02:42.072Z,98832.95
2018-10-19T19:05:14.872Z,98838.13
2018-10-19T19:07:47.942Z,98838.53
2018-10-19T19:10:21.026Z,98849.27
2018-10-19T19:12:59.012Z,98850.56
2018-10-19T19:15:31.992Z,98842.37
2018-10-19T19:18:05.715Z,98850.95
2018-10-19T19:20:38.993Z,98850.13
2018-10-19T19:23:11.983Z,98851.06
2018-10-19T19:25:50.239Z,98852.34
2018-10-19T19:28:23.411Z,98854.03
2018-10-19T19:30:57.938Z,98856.61
2018-10-19T19:33:35.615Z,98855.79
2018-10-19T19:36:08.366Z,98861.38
2018-10-19T19:38:41.553Z,98858.37
2018-10-19T19:41:19.236Z,98855.82
2018-10-19T19:43:52.255Z,98859.27
2018-10-19T19:46:25.359Z,98860.59
2018-10-19T19:49:03.185Z,98861.09
2018-10-19T19:51:37.137Z,98858.52
2018-10-19T19:54:10.412Z,98853.78
2018-10-19T19:56:43.338Z,98855.94
2018-10-19T19:59:16.784Z,98859.34
2018-10-19T20:01:49.851Z,98865.80
2018-10-19T20:04:22.691Z,98874.81
2018-10-19T20:06:55.758Z,98876.97
2018-10-19T20:09:29.035Z,98883.00
2018-10-19T20:12:02.161Z,98874.41
2018-10-19T20:14:35.947Z,98881.28
2018-10-19T20:17:08.982Z,98877.41
2018-10-19T20:19:42.060Z,98881.27
2018-10-19T20:22:15.283Z,98881.30
2018-10-19T20:24:48.903Z,98873.99
2018-10-19T20:27:21.964Z,98875.30
2018-10-19T20:29:56.282Z,98877.02
2018-10-19T20:32:29.585Z,98875.30
2018-10-19T20:35:02.983Z,98876.61
2018-10-19T20:37:36.079Z,98871.89
2018-10-19T20:40:09.216Z,98874.05
2018-10-19T20:42:42.227Z,98878.75
2018-10-19T20:45:15.827Z,98877.05
2018-10-19T20:47:48.789Z,98880.03
2018-10-19T20:50:21.972Z,98877.91
2018-10-19T20:52:54.766Z,98878.73
2018-10-19T20:55:27.511Z,98884.73
2018-10-19T20:57:59.492Z,98891.58
2018-10-19T21:00:30.720Z,98891.56
2018-10-19T21:03:00.424Z,98890.31
2018-10-19T21:05:29.882Z,98887.72
2018-10-19T21:07:59.487Z,98893.73
2018-10-19T21:10:28.927Z,98893.69
2018-10-19T21:12:58.355Z,98887.27
2018-10-19T21:15:28.932Z,98890.73
2018-10-19T21:17:58.365Z,98895.02
2018-10-19T21:20:27.796Z,98887.30
2018-10-19T21:22:57.277Z,98892.87
2018-10-19T21:25:26.704Z,98898.02
2018-10-19T21:27:56.155Z,98895.88
2018-10-19T21:30:25.669Z,98879.19
2018-10-19T21:32:55.187Z,98885.63
2018-10-19T21:35:24.667Z,98892.02
2018-10-19T21:37:54.174Z,98887.73
2018-10-19T21:40:25.033Z,98887.77
2018-10-19T21:42:54.672Z,98886.89
2018-10-19T21:45:24.341Z,98881.31
2018-10-19T21:47:54.046Z,98883.04
2018-10-19T21:50:23.952Z,98773.37
2018-10-19T21:52:54.408Z,98880.03
2018-10-19T21:55:23.823Z,98876.19
2018-10-19T21:57:53.267Z,98874.48
2018-10-19T22:00:22.683Z,98882.17
2018-10-19T22:02:52.216Z,98895.02
2018-10-19T22:05:21.623Z,98888.99
2018-10-19T22:07:51.071Z,98885.98
2018-10-19T22:10:20.556Z,98883.42
2018-10-19T22:12:49.965Z,98891.56
2018-10-19T22:15:19.411Z,98899.27
2018-10-19T22:17:48.833Z,98894.53
2018-10-19T22:20:18.286Z,98898.78
2018-10-19T22:22:47.717Z,98906.46
2018-10-19T22:25:17.195Z,98908.95
2018-10-19T22:27:46.627Z,98913.25
2018-10-19T22:30:16.139Z,98910.74
2018-10-19T22:32:45.561Z,98909.48
2018-10-19T22:35:15.039Z,98913.38
2018-10-19T22:37:44.428Z,98916.83
2018-10-19T22:40:13.844Z,98918.97
2018-10-19T22:42:43.302Z,98923.70
2018-10-19T22:45:12.747Z,98928.83
2018-10-19T22:47:42.155Z,98891.97
2018-10-19T22:50:11.580Z,98926.67
2018-10-19T22:52:41.011Z,98925.38
2018-10-19T22:55:10.490Z,98915.12
2018-10-19T22:57:39.908Z,98909.98
2018-10-19T23:00:09.338Z,98915.95
2018-10-19T23:02:38.807Z,98918.52
2018-10-19T23:05:08.393Z,98916.39
2018-10-19T23:07:37.736Z,98919.82
2018-10-19T23:10:08.315Z,98918.53
2018-10-19T23:12:37.796Z,98924.08
2018-10-19T23:15:07.867Z,98920.64
2018-10-19T23:17:37.465Z,98926.20
2018-10-19T23:20:07.448Z,98933.03
2018-10-19T23:22:36.935Z,98934.30
2018-10-19T23:25:07.972Z,98934.22
2018-10-19T23:27:37.415Z,98932.94
2018-10-19T23:30:07.712Z,98927.36
2018-10-19T23:32:37.136Z,98930.75
2018-10-19T23:35:07.923Z,98936.73
2018-10-19T23:37:37.385Z,98937.55
2018-10-19T23:40:07.783Z,98939.02
2018-10-19T23:42:37.255Z,98942.30
2018-10-19T23:45:08.151Z,98938.44
2018-10-19T23:47:37.598Z,98948.20
2018-10-19T23:50:07.971Z,98955.77
2018-10-19T23:52:37.436Z,98956.92
2018-10-19T23:55:07.340Z,98963.29
2018-10-19T23:57:36.756Z,98955.17
